Washington Heights, Pennsylvania
Current Conditions -  °F | °C
As of 1:15 AM on Monday 26 Jan 2015 (Local Time) from KCXY Reporting Station
Light Snow Light Snow  
Wind Chill: 21°   Ceiling: 1700
Heat Index: 30°   Visibility: 2.5mi
Dew Point: 26°   Wind: 12mph
Humidity: 85%   Direction: 80°E
Pressure: 29.91"   Gusts: NA
Location:  40.2478°N, 76.9006°W
Report Text: KCXY 260615Z AUTO 08010KT 2 1/2SM -SN BR FEW011 OVC017 M01/M03 A2991 RMK AO2 P0000 T10111033
Loading
Personal Weather Stations






























Interactive Weather Map New forecast layout! Learn more

10-Day Weather Forecast

Advertisements
Track Severe Weather on mobile